createdAt,value
2019-03-11T00:00:52.624Z,98865.13
2019-03-11T00:03:27.042Z,98866.44
2019-03-11T00:06:32.673Z,98875.27
2019-03-11T00:09:24.779Z,98888.07
2019-03-11T00:12:22.312Z,98881.50
2019-03-11T00:18:19.583Z,98888.86
2019-03-11T00:20:49.105Z,98899.50
2019-03-11T00:29:29.549Z,98905.98
2019-03-11T00:32:44.423Z,98905.47
2019-03-11T00:35:25.397Z,98906.30
2019-03-11T00:37:58.113Z,98914.13
2019-03-11T00:40:34.795Z,98912.95
2019-03-11T00:43:24.813Z,98921.14
2019-03-11T00:45:54.324Z,98922.27
2019-03-11T00:48:27.203Z,98927.17
2019-03-11T00:50:56.783Z,98923.55
2019-03-11T00:53:26.386Z,98922.21
2019-03-11T00:56:19.510Z,98921.39
2019-03-11T00:58:59.987Z,98922.55
2019-03-11T01:01:51.531Z,98922.21
2019-03-11T01:04:21.458Z,98929.42
2019-03-11T01:06:50.855Z,98936.45
2019-03-11T01:09:20.281Z,98935.79
2019-03-11T01:14:26.639Z,98942.00
2019-03-11T01:17:19.986Z,98948.36
2019-03-11T01:28:02.146Z,98958.65
2019-03-11T01:30:33.675Z,98963.73
2019-03-11T01:33:03.078Z,98976.15
2019-03-11T01:35:51.731Z,98974.84
2019-03-11T01:38:35.808Z,98976.97
2019-03-11T01:41:16.619Z,98982.69
2019-03-11T01:43:46.377Z,98985.46
2019-03-11T01:46:15.991Z,98990.84
2019-03-11T01:48:54.483Z,98994.95
2019-03-11T01:51:24.232Z,98994.44
2019-03-11T01:54:05.599Z,98994.09
2019-03-11T01:56:46.833Z,98995.70
2019-03-11T01:59:16.291Z,98994.39
2019-03-11T02:01:52.345Z,98997.16
2019-03-11T02:07:29.203Z,98997.98
2019-03-11T02:10:19.316Z,99000.79
2019-03-11T02:15:49.017Z,98999.97
2019-03-11T02:18:18.541Z,99007.81
2019-03-11T02:20:54.222Z,99011.26
2019-03-11T02:23:23.671Z,99011.94
2019-03-11T02:29:32.630Z,99019.94
2019-03-11T02:32:23.702Z,99023.52
2019-03-11T02:35:18.854Z,99029.39
2019-03-11T02:37:50.118Z,99031.67
2019-03-11T02:43:08.277Z,99035.89
2019-03-11T02:48:26.428Z,99037.15
2019-03-11T02:50:59.467Z,99037.30
2019-03-11T02:53:45.253Z,99037.59
2019-03-11T02:56:14.716Z,99039.70
2019-03-11T02:59:03.401Z,99042.95
2019-03-11T03:01:54.956Z,99046.20
2019-03-11T03:04:45.365Z,99045.05
2019-03-11T03:07:14.825Z,99049.11
2019-03-11T03:09:44.338Z,99052.70
2019-03-11T03:12:13.872Z,99050.72
2019-03-11T03:23:30.923Z,99065.91
2019-03-11T03:26:00.379Z,99064.75
2019-03-11T03:28:38.390Z,99065.57
2019-03-11T03:31:39.603Z,99072.45
2019-03-11T03:34:50.313Z,99072.94
2019-03-11T03:40:09.015Z,99076.86
2019-03-11T03:48:12.044Z,99090.56
2019-03-11T03:50:41.730Z,99102.34
2019-03-11T03:53:27.286Z,99093.33
2019-03-11T03:55:44.937Z,99094.30
2019-03-11T04:00:56.723Z,99093.81
2019-03-11T04:03:26.187Z,99096.23
2019-03-11T04:05:57.378Z,99106.20
2019-03-11T04:08:27.003Z,99109.94
2019-03-11T04:10:56.457Z,99114.34
2019-03-11T04:16:14.500Z,99117.16
2019-03-11T04:19:30.870Z,99121.08
2019-03-11T04:22:20.648Z,99122.38
2019-03-11T04:24:50.181Z,99125.80
2019-03-11T04:27:19.785Z,99125.46
2019-03-11T04:29:49.226Z,99127.39
2019-03-11T04:32:18.595Z,99129.19
2019-03-11T04:34:47.992Z,99129.33
2019-03-11T04:37:25.140Z,99133.73
2019-03-11T04:39:54.627Z,99141.58
2019-03-11T04:42:49.242Z,99148.75
2019-03-11T04:45:22.298Z,99147.58
2019-03-11T04:48:12.699Z,99157.70
2019-03-11T04:50:42.139Z,99163.55
2019-03-11T04:56:40.860Z,99163.53
2019-03-11T04:59:28.355Z,99158.58
2019-03-11T05:02:09.197Z,99164.30
2019-03-11T05:04:41.483Z,99170.34
2019-03-11T05:07:13.222Z,99169.38
2019-03-11T05:09:42.689Z,99180.94
2019-03-11T05:12:12.313Z,99180.60
2019-03-11T05:14:43.733Z,99181.37
2019-03-11T05:17:16.135Z,99181.70
2019-03-11T05:19:45.520Z,99180.06
2019-03-11T05:22:15.053Z,99181.37
2019-03-11T05:24:44.475Z,99186.11
2019-03-11T05:27:36.077Z,99190.52
2019-03-11T05:30:25.274Z,99197.88
2019-03-11T05:32:55.794Z,99203.28
2019-03-11T05:35:44.288Z,99200.31
2019-03-11T05:40:49.106Z,99205.89
2019-03-11T05:43:18.790Z,99214.36
2019-03-11T05:45:48.213Z,99215.18
2019-03-11T05:48:25.523Z,99221.23
2019-03-11T05:50:55.049Z,99223.54
2019-03-11T05:53:24.570Z,99225.25
2019-03-11T05:55:54.535Z,99225.31
2019-03-11T05:58:28.859Z,99224.04
2019-03-11T06:00:58.271Z,99232.29
2019-03-11T06:04:07.032Z,99236.70
2019-03-11T06:09:27.767Z,99240.57
2019-03-11T06:12:16.402Z,99243.73
2019-03-11T06:14:45.863Z,99248.14
2019-03-11T06:17:15.239Z,99248.06
2019-03-11T06:19:44.687Z,99253.80
2019-03-11T06:22:17.538Z,99255.17
2019-03-11T06:24:46.900Z,99260.46
2019-03-11T06:27:35.921Z,99274.26
2019-03-11T06:30:08.061Z,99273.77
2019-03-11T06:32:37.023Z,99268.31
2019-03-11T06:37:52.158Z,99274.38
2019-03-11T06:40:23.973Z,99274.25
2019-03-11T06:45:44.394Z,99281.27
2019-03-11T06:48:13.936Z,99285.11
2019-03-11T06:53:49.698Z,99294.13
2019-03-11T06:56:23.421Z,99292.73
2019-03-11T06:59:13.569Z,99289.04
2019-03-11T07:01:43.111Z,99296.72
2019-03-11T07:07:32.760Z,99310.28
2019-03-11T07:13:15.327Z,99323.48
2019-03-11T07:18:44.852Z,99320.52
2019-03-11T07:21:28.293Z,99321.89
2019-03-11T07:24:19.717Z,99321.06
2019-03-11T07:30:22.724Z,99322.70
2019-03-11T07:38:31.839Z,99347.17
2019-03-11T07:41:04.979Z,99350.16
2019-03-11T07:46:14.682Z,99346.41
2019-03-11T07:51:39.651Z,99359.36
2019-03-11T07:54:10.577Z,99360.53
2019-03-11T07:56:59.795Z,99372.05
2019-03-11T07:59:32.934Z,99367.73
2019-03-11T08:04:48.657Z,99374.39
2019-03-11T08:16:09.206Z,99387.05
2019-03-11T08:18:50.116Z,99391.70
2019-03-11T08:24:16.776Z,99401.80
2019-03-11T08:29:22.575Z,99408.59
2019-03-11T08:32:11.245Z,99409.83
2019-03-11T08:35:02.772Z,99409.83
2019-03-11T08:37:32.785Z,99414.58
2019-03-11T08:40:14.944Z,99414.36
2019-03-11T08:43:06.516Z,99415.22
2019-03-11T08:45:56.498Z,99413.23
2019-03-11T08:48:46.485Z,99416.72
2019-03-11T09:00:03.401Z,99424.83
2019-03-11T09:05:42.780Z,99425.17
2019-03-11T09:10:49.155Z,99425.09
2019-03-11T09:13:38.084Z,99424.75
2019-03-11T09:19:04.802Z,99427.08
2019-03-11T09:21:34.977Z,99430.69
2019-03-11T09:24:04.778Z,99439.76
2019-03-11T09:26:34.395Z,99436.64
2019-03-11T09:29:04.015Z,99432.73
2019-03-11T09:31:33.513Z,99445.72
2019-03-11T09:36:57.486Z,99444.13
2019-03-11T09:39:33.256Z,99454.03
2019-03-11T09:42:17.167Z,99454.03
2019-03-11T09:45:05.592Z,99466.34
2019-03-11T09:47:40.098Z,99461.95
2019-03-11T09:50:30.965Z,99464.97
2019-03-11T09:53:00.581Z,99469.30
2019-03-11T09:55:49.110Z,99458.94
2019-03-11T10:01:26.420Z,99475.05
2019-03-11T10:03:55.875Z,99480.97
2019-03-11T10:06:25.525Z,99478.88
2019-03-11T10:08:55.428Z,99467.53
2019-03-11T10:11:25.217Z,99480.41
2019-03-11T10:14:15.787Z,99475.84
2019-03-11T10:16:45.250Z,99480.11
2019-03-11T10:19:33.826Z,99484.92
2019-03-11T10:22:03.556Z,99484.92
2019-03-11T10:24:32.975Z,99488.87
2019-03-11T10:27:07.272Z,99494.95
2019-03-11T10:29:55.900Z,99477.15
2019-03-11T10:32:25.540Z,99483.59
2019-03-11T10:34:55.045Z,99489.52
2019-03-11T10:37:24.523Z,99489.52
2019-03-11T10:39:59.790Z,99501.40
2019-03-11T10:42:29.307Z,99501.40
2019-03-11T10:45:08.634Z,99505.00
2019-03-11T10:47:57.388Z,99494.31
2019-03-11T10:50:45.833Z,99496.28
2019-03-11T10:53:15.256Z,99496.28
2019-03-11T10:56:03.967Z,99508.31
2019-03-11T10:58:33.564Z,99507.67
2019-03-11T11:01:09.907Z,99507.67
2019-03-11T11:03:41.015Z,99515.70
2019-03-11T11:06:29.553Z,99525.09
2019-03-11T11:12:34.103Z,99530.55
2019-03-11T11:15:03.610Z,99530.55
2019-03-11T11:17:52.179Z,99534.86
2019-03-11T11:20:40.864Z,99524.30
2019-03-11T11:23:22.152Z,99542.06
2019-03-11T11:25:51.768Z,99542.06
2019-03-11T11:31:29.015Z,99542.42
2019-03-11T11:33:59.460Z,99542.42
2019-03-11T11:36:48.025Z,99544.58
2019-03-11T11:39:17.552Z,99544.58
2019-03-11T11:41:46.975Z,99529.09
2019-03-11T11:44:36.811Z,99529.09
2019-03-11T11:50:00.428Z,99557.61
2019-03-11T11:52:49.124Z,99562.03
2019-03-11T11:55:37.618Z,99542.27
2019-03-11T11:58:07.154Z,99542.27
2019-03-11T12:00:57.225Z,99544.25
2019-03-11T12:03:46.457Z,99550.03
2019-03-11T12:06:15.915Z,99550.03
2019-03-11T12:08:45.437Z,99550.37
2019-03-11T12:11:33.764Z,99550.03
2019-03-11T12:14:06.107Z,99560.91
2019-03-11T12:16:35.547Z,99569.64
2019-03-11T12:19:24.040Z,99546.72
2019-03-11T12:21:53.767Z,99568.80
2019-03-11T12:24:42.456Z,99569.11
2019-03-11T12:27:30.878Z,99569.11
2019-03-11T12:30:01.388Z,99572.73
2019-03-11T12:32:30.894Z,99582.30
2019-03-11T12:35:00.496Z,99577.68
2019-03-11T12:37:30.210Z,99580.83
2019-03-11T12:40:00.893Z,99581.98
2019-03-11T12:42:49.343Z,99582.98
2019-03-11T12:45:19.132Z,99581.16
2019-03-11T12:47:50.522Z,99592.02
2019-03-11T12:52:56.062Z,99596.65
2019-03-11T12:55:25.628Z,99593.84
2019-03-11T12:57:55.434Z,99593.86
2019-03-11T13:00:24.958Z,99599.59
2019-03-11T13:02:54.589Z,99597.30
2019-03-11T13:05:24.403Z,99601.25
2019-03-11T13:07:53.969Z,99600.10
2019-03-11T13:10:23.524Z,99605.05
2019-03-11T13:12:53.327Z,99607.52
2019-03-11T13:15:23.013Z,99604.55
2019-03-11T13:17:52.439Z,99612.78
2019-03-11T13:20:41.211Z,99611.78
2019-03-11T13:23:23.415Z,99608.66
2019-03-11T13:25:52.962Z,99631.58
2019-03-11T13:28:22.371Z,99619.37
2019-03-11T13:30:52.330Z,99621.36
2019-03-11T13:33:23.741Z,99622.48
2019-03-11T13:36:23.107Z,99613.75
2019-03-11T13:38:53.325Z,99631.40
2019-03-11T13:41:23.014Z,99625.95
2019-03-11T13:43:55.585Z,99638.48
2019-03-11T13:51:49.357Z,99627.28
2019-03-11T13:54:38.001Z,99626.13
2019-03-11T13:57:07.964Z,99643.95
2019-03-11T13:59:57.801Z,99642.97
2019-03-11T14:02:29.618Z,99645.91
2019-03-11T14:05:18.347Z,99654.83
2019-03-11T14:08:00.847Z,99656.64
2019-03-11T14:10:30.450Z,99648.07
2019-03-11T14:13:04.619Z,99646.25
2019-03-11T14:15:53.073Z,99666.53
2019-03-11T14:21:25.737Z,99670.66
2019-03-11T14:23:48.990Z,99654.50
2019-03-11T14:26:18.365Z,99661.27
2019-03-11T14:28:47.874Z,99672.47
2019-03-11T14:31:18.308Z,99680.37
2019-03-11T14:33:47.767Z,99668.51
2019-03-11T14:41:45.437Z,99687.95
2019-03-11T14:44:28.581Z,99684.00
2019-03-11T14:46:58.252Z,99703.93
2019-03-11T14:49:27.889Z,99702.14
2019-03-11T14:51:57.459Z,99701.47
2019-03-11T14:54:27.160Z,99709.87
2019-03-11T14:56:58.992Z,99725.70
2019-03-11T14:59:30.507Z,99722.08
2019-03-11T15:02:02.189Z,99720.45
2019-03-11T15:04:32.285Z,99715.16
2019-03-11T15:07:01.716Z,99728.51
2019-03-11T15:09:31.190Z,99725.70
2019-03-11T15:12:00.648Z,99728.66
2019-03-11T15:17:05.577Z,99734.90
2019-03-11T15:19:35.338Z,99743.13
2019-03-11T15:22:04.838Z,99736.52
2019-03-11T15:24:34.555Z,99742.44
2019-03-11T15:27:04.692Z,99747.38
2019-03-11T15:29:34.210Z,99746.71
2019-03-11T15:32:03.609Z,99741.44
2019-03-11T15:35:11.093Z,99743.74
2019-03-11T15:37:52.264Z,99750.80
2019-03-11T15:40:33.028Z,99756.74
2019-03-11T15:43:02.567Z,99768.60
2019-03-11T15:45:38.665Z,99772.27
2019-03-11T15:48:03.274Z,99774.09
2019-03-11T15:50:32.777Z,99777.55
2019-03-11T15:53:16.134Z,99782.00
2019-03-11T15:55:33.444Z,99775.08
2019-03-11T15:58:03.037Z,99765.16
2019-03-11T16:00:32.721Z,99770.41
2019-03-11T16:03:02.274Z,99777.18
2019-03-11T16:05:31.654Z,99777.48
2019-03-11T16:08:01.313Z,99784.23
2019-03-11T16:10:32.688Z,99781.06
2019-03-11T16:13:05.000Z,99784.31
2019-03-11T16:15:34.417Z,99784.31
2019-03-11T16:18:03.974Z,99787.34
2019-03-11T16:20:34.871Z,99787.34
2019-03-11T16:23:23.409Z,99787.16
2019-03-11T16:26:04.868Z,99797.39
2019-03-11T16:31:30.224Z,99809.33
2019-03-11T16:36:34.601Z,99790.17
2019-03-11T16:39:15.615Z,99803.98
2019-03-11T16:41:45.346Z,99803.98
2019-03-11T16:44:15.436Z,99814.66
2019-03-11T16:46:44.992Z,99819.25
2019-03-11T16:49:14.981Z,99814.31
2019-03-11T16:51:44.378Z,99816.57
2019-03-11T16:54:32.920Z,99833.73
2019-03-11T17:02:43.533Z,99837.88
2019-03-11T17:05:18.613Z,99841.42
2019-03-11T17:08:07.262Z,99841.42
2019-03-11T17:10:38.377Z,99854.03
2019-03-11T17:13:08.493Z,99855.16
2019-03-11T17:16:01.592Z,99851.23
2019-03-11T17:18:57.190Z,99868.81
2019-03-11T17:21:27.390Z,99866.84
2019-03-11T17:23:57.174Z,99866.84
2019-03-11T17:26:28.815Z,99873.02
2019-03-11T17:28:58.987Z,99875.11
2019-03-11T17:31:28.882Z,99883.61
2019-03-11T17:34:28.285Z,99883.61
2019-03-11T17:37:17.942Z,99886.52
2019-03-11T17:40:18.506Z,99887.78
2019-03-11T17:42:48.107Z,99897.27
2019-03-11T17:46:14.530Z,99897.58
2019-03-11T17:48:47.044Z,99908.03
2019-03-11T17:54:30.968Z,99919.11
2019-03-11T17:57:03.382Z,99918.59
2019-03-11T18:02:37.925Z,99923.58
2019-03-11T18:08:27.370Z,99932.27
2019-03-11T18:11:08.139Z,99934.62
2019-03-11T18:46:07.785Z,99982.02
2019-03-11T18:48:49.692Z,99987.23
2019-03-11T18:54:43.968Z,99995.64
2019-03-11T18:57:40.489Z,99999.71
2019-03-11T19:00:37.259Z,100005.44
2019-03-11T19:03:41.857Z,100003.25
2019-03-11T19:09:49.000Z,100016.98
2019-03-11T19:16:05.214Z,100021.41
2019-03-11T19:18:34.663Z,100020.80
2019-03-11T19:21:27.345Z,100019.48
2019-03-11T19:24:16.960Z,100019.48
2019-03-11T19:27:24.407Z,100023.90
2019-03-11T19:34:52.200Z,100022.23
2019-03-11T19:37:33.485Z,100028.45
2019-03-11T19:41:00.445Z,100027.14
2019-03-11T19:43:29.884Z,100034.19
2019-03-11T19:46:28.846Z,100035.84
2019-03-11T19:48:58.403Z,100040.74
2019-03-11T19:51:53.857Z,100040.74
2019-03-11T19:55:06.969Z,100042.05
2019-03-11T20:01:39.020Z,100043.85
2019-03-11T20:04:20.073Z,100044.47
2019-03-11T20:07:13.137Z,100046.73
2019-03-11T20:09:42.743Z,100050.80
2019-03-11T20:18:37.354Z,100064.67
2019-03-11T20:21:29.501Z,100064.67
2019-03-11T20:23:59.204Z,100069.60
2019-03-11T20:26:59.288Z,100064.00
2019-03-11T20:32:25.567Z,100066.41
2019-03-11T20:40:54.921Z,100080.40
2019-03-11T20:43:25.008Z,100078.04
2019-03-11T20:49:19.286Z,100087.16
2019-03-11T20:52:06.310Z,100087.90
2019-03-11T20:54:56.470Z,100090.43
2019-03-11T20:57:26.793Z,100091.20
2019-03-11T20:59:58.936Z,100095.88
2019-03-11T21:05:48.759Z,100099.71
2019-03-11T21:09:27.638Z,100104.19
2019-03-11T21:11:14.366Z,100105.88
2019-03-11T21:14:03.232Z,100109.02
2019-03-11T21:16:32.752Z,100120.16
2019-03-11T21:19:23.017Z,100117.09
2019-03-11T21:21:52.531Z,100114.05
2019-03-11T21:24:21.969Z,100113.59
2019-03-11T21:29:32.558Z,100111.40
2019-03-11T21:32:02.163Z,100118.20
2019-03-11T21:34:31.625Z,100115.23
2019-03-11T21:37:21.638Z,100118.45
2019-03-11T21:40:16.479Z,100107.97
2019-03-11T21:43:05.389Z,100118.25
2019-03-11T21:45:52.228Z,100122.43
2019-03-11T21:48:16.279Z,100123.52
2019-03-11T21:53:35.903Z,100130.13
2019-03-11T21:56:05.444Z,100135.14
2019-03-11T21:58:58.507Z,100137.55
2019-03-11T22:01:28.328Z,100144.34
2019-03-11T22:04:18.215Z,100143.41
2019-03-11T22:09:32.003Z,100141.50
2019-03-11T22:12:01.497Z,100144.39
2019-03-11T22:14:30.929Z,100150.23
2019-03-11T22:17:19.796Z,100149.99
2019-03-11T22:20:09.534Z,100157.97
2019-03-11T22:23:09.625Z,100154.28
2019-03-11T22:28:30.528Z,100156.45
2019-03-11T22:30:59.922Z,100158.24
2019-03-11T22:33:29.414Z,100152.65
2019-03-11T22:36:00.582Z,100151.81
2019-03-11T22:38:30.218Z,100156.10
2019-03-11T22:41:20.065Z,100154.44
2019-03-11T22:43:49.593Z,100155.74
2019-03-11T22:46:23.322Z,100160.27
2019-03-11T22:49:08.108Z,100168.59
2019-03-11T22:51:25.678Z,100165.97
2019-03-11T22:53:55.230Z,100177.40
2019-03-11T22:59:09.713Z,100183.94
2019-03-11T23:07:28.688Z,100186.32
2019-03-11T23:09:58.215Z,100184.89
2019-03-11T23:12:27.846Z,100180.02
2019-03-11T23:15:36.645Z,100185.13
2019-03-11T23:21:13.833Z,100193.46
2019-03-11T23:23:46.373Z,100187.16
2019-03-11T23:26:15.759Z,100186.91
2019-03-11T23:29:04.157Z,100188.22
2019-03-11T23:31:33.622Z,100189.08
2019-03-11T23:34:22.362Z,100188.12
2019-03-11T23:37:10.792Z,100194.79
2019-03-11T23:39:59.226Z,100196.69
2019-03-11T23:42:30.690Z,100198.14
2019-03-11T23:45:03.187Z,100196.84
2019-03-11T23:47:51.425Z,100201.59
2019-03-11T23:50:20.875Z,100195.89
2019-03-11T23:53:11.576Z,100200.29
2019-03-11T23:55:41.081Z,100206.83
2019-03-11T23:58:18.542Z,100201.92
